Date,TemperatureHighF,TemperatureAvgF,TemperatureLowF,DewpointHighF,DewpointAvgF,DewpointLowF,HumidityHigh,HumidityAvg,HumidityLow,PressureMaxIn,PressureMinIn,WindSpeedMaxMPH,WindSpeedAvgMPH,GustSpeedMaxMPH,PrecipitationSumIn
2014-1-1,69.6,65.7,62.4,69.4,64.5,15.8,99,96,14,30.10,29.83,7,2,11,0.13
2014-1-2,84.2,71.9,64.9,71.8,67.5,64.7,99,88,58,29.86,29.54,20,8,28,0.26
2014-1-3,67.1,52.1,45.5,66.8,44.2,30.1,99,75,43,30.14,29.66,15,7,21,0.00
2014-1-4,70.7,61.5,48.9,68.3,57.5,46.8,99,87,67,33.14,29.88,7,2,11,0.00
2014-1-5,80.1,68.8,59.7,71.5,66.2,59.5,99,92,69,29.93,29.63,9,3,11,0.37
2014-1-6,80.1,64.5,45.3,70.8,56.9,25.9,99,78,42,30.06,29.62,16,8,22,0.01
2014-1-7,54.7,43.7,36.7,38.8,31.3,19.3,97,63,44,30.34,29.82,12,7,19,0.00
2014-1-8,69.8,58.1,39.2,63.5,52.5,38.6,99,83,57,30.00,29.73,13,5,18,0.00
2014-1-9,70.5,68.2,65.1,69.6,66.6,62.7,99,94,87,29.83,29.60,13,7,17,0.08
2014-1-10,79.9,72.0,66.4,74.1,70.1,66.1,99,94,77,29.68,29.38,14,3,17,0.11
2014-1-11,84.4,75.0,67.6,74.1,70.7,67.4,99,87,65,29.48,29.31,20,9,26,0.05
2014-1-12,73.4,64.1,51.3,68.7,53.9,38.5,99,75,29,29.67,29.32,10,4,13,0.00
2014-1-13,81.0,65.0,47.8,69.9,60.7,47.6,99,87,53,29.72,29.38,11,4,12,0.00
2014-1-14,76.1,70.2,64.9,72.6,66.9,62.6,99,90,71,29.43,29.25,14,5,18,0.00
2014-1-15,68.2,60.4,55.2,63.9,55.0,48.5,99,83,62,29.55,29.32,10,4,14,0.00
2014-1-16,61.2,51.2,40.1,52.1,34.6,16.5,99,60,21,29.75,29.45,13,6,17,0.07
2014-1-17,72.0,51.6,35.6,42.7,32.2,18.2,96,57,13,29.89,29.62,6,2,7,0.00
2014-1-18,52.5,50.0,48.2,46.2,44.0,38.7,87,80,62,29.79,29.65,7,4,9,0.00
2014-1-19,48.2,48.2,48.2,44.5,44.5,44.5,87,87,87,29.78,29.78,3,3,4,0.00
2014-1-20,71.6,57.6,48.2,53.1,48.9,42.5,87,74,35,29.78,29.61,5,2,7,0.00
2014-1-21,74.5,62.0,53.1,60.9,55.7,49.5,99,82,49,29.64,29.26,22,8,26,0.00
2014-1-22,62.8,50.2,39.4,49.5,30.3,18.2,87,51,21,29.83,29.41,12,6,20,0.00
2014-1-23,69.3,50.5,38.3,46.1,37.3,25.6,88,64,32,29.92,29.70,7,3,12,0.00
2014-1-24,63.1,51.1,42.3,45.6,40.6,30.6,93,69,45,30.05,29.67,11,5,17,0.00
2014-1-25,72.0,56.8,43.3,56.4,50.3,29.9,95,80,42,30.22,29.53,15,4,19,0.00
2014-1-26,73.2,61.3,49.3,63.5,57.5,49.0,99,88,66,29.98,29.70,12,3,16,0.00
2014-1-27,82.8,68.5,57.7,65.7,62.6,57.5,99,83,51,29.80,29.57,14,5,18,0.00
2014-1-28,82.8,68.4,56.3,68.6,61.7,55.5,99,82,46,29.76,29.55,10,3,15,0.01
2014-1-29,67.1,58.0,50.2,63.1,56.3,49.9,99,94,83,29.93,29.63,9,4,14,1.28
2014-1-30,58.1,53.5,50.0,57.8,53.1,49.7,99,98,97,30.02,29.81,7,4,11,0.50
2014-1-31,68.4,60.9,54.5,67.9,60.5,53.7,99,98,97,29.96,29.72,6,2,9,1.76
2014-2-1,83.8,77.2,64.6,74.2,69.1,64.3,99,78,63,29.89,29.74,11,6,13,0.00
2014-2-2,83.7,78.2,64.2,74.2,70.0,63.4,99,78,59,29.87,29.66,12,7,17,0.08
2014-2-3,85.5,73.6,64.6,75.6,70.1,16.8,99,90,14,29.98,29.58,10,4,13,0.12
2014-2-4,81.3,73.8,69.1,74.1,71.0,68.8,99,91,74,30.00,29.89,14,6,18,0.06
2014-2-5,85.8,75.0,68.9,75.4,70.9,16.2,99,88,13,30.00,29.81,15,6,19,0.64
2014-2-6,71.6,66.5,55.2,69.2,63.9,54.4,99,91,74,30.02,29.86,9,4,16,0.00
2014-2-7,70.9,61.9,53.2,65.1,60.3,52.7,99,94,82,30.12,29.91,8,4,13,0.00
2014-2-8,81.9,63.7,58.5,70.0,61.7,57.8,99,93,63,30.10,29.92,7,3,11,0.00
2014-2-9,77.9,63.9,56.3,60.9,57.4,51.9,99,82,46,30.04,29.88,10,4,14,0.00
2014-2-10,79.7,64.7,52.9,66.7,54.6,50.7,99,74,40,30.08,29.88,8,2,11,0.00
2014-2-11,79.3,66.7,54.1,68.6,61.7,53.3,99,85,57,30.03,29.82,11,4,15,0.00
2014-2-12,79.3,64.0,57.6,68.6,61.3,57.3,99,92,61,29.91,29.55,22,5,32,0.58
2014-2-13,66.2,60.0,45.7,63.2,52.2,43.5,98,77,47,29.93,29.57,24,12,33,0.00
2014-2-14,71.4,54.5,40.6,51.0,43.4,32.3,99,72,29,30.17,29.88,7,3,12,0.00
2014-2-15,77.0,59.8,48.2,60.4,46.4,21.5,99,69,15,30.13,29.93,19,8,24,0.00
2014-2-16,74.7,57.5,42.3,53.7,43.6,21.4,99,67,15,30.25,30.06,9,2,11,0.00
2014-2-17,78.3,62.1,46.6,60.5,49.9,37.0,99,72,24,30.33,30.02,8,2,11,0.00
2014-2-18,84.4,66.3,51.6,64.9,57.6,47.6,99,78,32,30.23,29.98,11,3,13,0.08
2014-2-19,83.7,69.2,57.4,72.5,63.5,57.1,99,84,50,30.09,29.89,12,4,16,0.00
2014-2-20,79.9,70.8,58.6,69.7,65.8,58.4,99,85,65,30.03,29.75,15,7,20,0.00
2014-2-21,84.2,73.9,67.5,74.1,70.2,67.2,99,89,62,29.82,29.61,18,6,23,0.11
2014-2-22,81.9,70.7,66.6,74.6,69.2,66.3,99,95,71,29.83,29.63,12,3,21,0.47
2014-2-23,88.5,71.8,63.5,74.1,67.2,62.7,99,87,47,29.85,29.60,10,3,14,0.05
2014-2-24,84.4,69.7,64.2,70.6,65.8,62.9,99,89,51,29.78,29.62,8,3,12,0.01
2014-2-25,86.4,70.8,61.2,68.9,64.5,60.1,99,83,45,29.79,29.62,8,2,10,0.01
2014-2-26,80.1,68.0,58.5,67.2,62.6,58.2,99,85,52,29.71,29.37,15,5,19,0.25
2014-2-27,64.8,60.3,53.8,64.5,57.8,52.6,99,92,76,29.76,29.50,9,3,12,0.08
2014-2-28,76.8,61.7,50.5,56.7,52.5,45.7,97,74,45,29.93,29.72,8,3,12,0.00
2014-3-1,80.8,67.1,53.4,62.8,58.1,48.4,99,76,33,29.93,29.78,9,3,14,0.00
2014-3-2,81.5,67.9,54.5,68.2,60.5,53.7,99,80,46,29.94,29.67,11,4,17,0.07
2014-3-3,84.9,71.6,59.2,64.0,59.8,53.4,99,70,38,29.74,26.69,15,6,21,0.00
2014-3-4,82.8,69.2,59.4,70.8,63.3,59.1,99,84,52,29.73,29.59,8,3,12,0.00
2014-3-5,81.7,67.5,60.4,71.6,64.1,60.2,99,90,64,29.73,29.56,8,4,14,0.00
2014-3-6,74.8,68.3,63.7,73.2,67.2,8.6,99,97,11,29.69,29.32,10,3,13,0.11
2014-3-7,71.8,62.9,49.3,65.9,56.5,44.8,99,81,54,29.77,29.46,17,8,23,0.05
2014-3-8,75.7,60.7,47.5,59.3,53.0,43.9,99,78,56,29.99,29.70,8,4,12,0.00
2014-3-9,78.3,65.5,52.5,65.4,56.0,51.8,99,76,45,30.06,29.75,8,2,10,0.01
2014-3-10,83.7,67.2,55.6,64.0,59.2,53.6,99,79,37,29.90,29.59,11,2,14,0.00
2014-3-11,82.4,68.4,54.9,67.9,57.9,39.0,99,75,23,29.74,29.47,11,4,17,0.00
2014-3-12,81.0,71.5,65.8,69.8,66.0,62.3,99,83,61,29.55,29.33,20,10,27,0.07
2014-3-13,70.5,61.3,53.8,64.4,46.8,29.3,94,62,23,29.99,29.50,13,6,18,0.00
2014-3-14,72.5,61.3,47.5,55.5,49.5,40.9,99,67,47,30.18,29.84,13,5,16,0.00
2014-3-15,79.2,65.9,52.2,63.0,56.7,51.6,99,75,46,30.04,29.68,17,4,43,0.00
2014-3-16,83.8,71.9,59.2,67.8,61.2,56.3,99,73,43,29.77,29.40,19,8,25,0.00
2014-3-17,79.3,74.1,68.4,72.5,70.0,64.7,97,87,76,29.42,29.27,18,10,24,0.05
2014-3-18,80.1,69.5,60.8,73.1,63.0,49.9,99,82,38,29.71,29.24,28,9,36,0.50
2014-3-19,79.9,66.8,55.0,65.5,59.7,54.2,99,81,47,29.87,29.62,8,3,12,0.00
2014-3-20,79.5,69.3,58.6,67.6,62.2,58.4,99,80,52,29.82,26.60,9,4,13,0.00
2014-3-21,80.8,72.5,59.9,65.8,63.4,56.0,99,75,46,29.98,29.64,10,4,15,0.85
2014-3-22,86.5,75.3,68.0,70.6,65.0,54.1,99,73,36,29.88,29.66,14,6,18,0.00
2014-3-23,85.1,72.6,62.8,69.7,64.3,57.9,93,76,56,29.89,29.69,12,5,16,0.00
2014-3-24,82.2,70.0,64.8,68.3,65.6,60.8,99,87,51,29.90,29.69,9,4,11,0.19
2014-3-25,78.3,67.9,57.4,66.7,60.1,43.2,99,78,46,29.83,29.63,18,10,23,0.09
2014-3-26,64.6,54.9,44.6,46.2,37.7,24.5,84,54,40,30.29,29.83,10,6,17,0.00
2014-3-27,68.0,62.3,48.7,62.5,56.4,45.3,98,82,63,30.38,29.84,13,4,19,0.01
2014-3-28,78.3,71.9,63.5,68.3,65.4,60.8,93,80,68,29.89,29.52,20,9,24,0.00
2014-3-29,81.9,71.3,64.8,73.9,68.9,64.5,99,92,72,29.61,29.37,19,8,30,0.73
2014-3-30,79.0,67.1,57.9,67.1,51.3,36.4,99,64,23,29.77,29.47,12,6,19,0.00
2014-3-31,81.3,63.5,50.7,54.9,49.8,39.1,99,67,25,29.88,29.57,7,3,10,0.00
2014-4-1,80.2,65.8,49.8,66.5,56.0,48.2,99,75,36,29.90,29.62,10,3,14,0.00
2014-4-2,81.0,68.2,54.3,65.0,59.0,51.0,99,76,40,29.87,29.63,12,4,16,0.00
2014-4-3,82.4,71.4,57.7,71.4,64.2,57.5,99,80,54,29.81,29.56,14,6,20,0.00
2014-4-4,87.4,73.0,60.3,71.1,65.2,59.8,99,79,44,29.65,29.43,12,5,16,0.00
2014-4-5,84.6,73.4,64.0,70.6,67.4,62.3,99,83,51,29.61,29.46,9,5,13,0.00
2014-4-6,87.4,75.8,67.5,70.7,68.0,60.3,99,79,43,29.59,29.40,13,6,16,0.00
2014-4-7,90.0,77.3,67.6,73.6,69.1,64.5,99,79,43,29.50,29.26,16,8,23,0.14
2014-4-8,79.5,72.8,64.9,76.8,71.5,62.8,99,96,85,29.39,29.17,26,10,36,0.57
2014-4-9,79.9,66.1,57.4,62.8,54.9,44.8,95,71,32,29.72,29.39,13,6,16,0.00
2014-4-10,79.5,66.4,54.3,60.6,55.7,51.4,99,72,42,29.93,29.70,10,4,15,0.00
2014-4-11,77.9,70.2,59.9,68.7,63.3,53.4,95,79,64,29.81,29.58,15,6,20,0.02
2014-4-12,81.0,72.8,62.6,67.4,62.2,55.4,99,73,44,29.78,29.61,11,4,16,0.00
2014-4-13,81.0,74.3,68.9,69.2,66.8,63.5,99,78,59,29.72,29.49,15,8,20,0.01
2014-4-14,84.6,76.9,70.9,75.3,71.9,67.9,98,85,67,29.53,29.34,13,7,18,0.00
2014-4-15,87.6,76.2,69.6,75.3,71.7,68.1,99,87,55,30.06,29.28,24,8,31,0.72
2014-4-16,78.6,69.0,55.6,68.3,62.1,51.3,96,80,58,30.08,29.88,12,6,19,0.00
2014-4-17,75.9,72.5,69.1,70.6,68.0,63.7,96,86,77,30.06,29.95,14,9,22,0.06
2014-4-18,83.3,74.2,68.0,74.6,70.5,65.7,99,89,57,30.03,29.73,14,7,19,0.38
2014-4-19,79.7,72.4,62.6,72.2,66.6,59.2,99,83,55,29.85,26.78,17,9,23,0.26
2014-4-20,75.7,65.7,60.4,63.0,60.5,56.6,98,84,63,29.98,29.84,8,5,14,0.00
2014-4-21,80.1,68.0,58.8,65.8,61.8,58.6,99,82,58,30.00,29.79,8,4,13,0.00
2014-4-22,84.6,69.6,57.2,66.5,61.9,56.9,99,79,47,29.93,29.65,10,3,14,0.00
2014-4-23,86.2,72.4,60.6,67.3,64.0,60.2,99,77,46,29.85,29.66,9,4,11,0.00
2014-4-24,84.4,74.6,62.6,73.0,67.7,61.8,99,80,55,29.88,29.71,14,5,20,0.00
2014-4-25,90.9,76.5,64.8,70.9,66.9,60.2,99,76,38,29.88,29.69,9,4,14,0.00
2014-4-26,86.4,75.1,63.9,74.4,69.3,63.0,99,84,56,29.90,29.75,11,4,14,0.00
2014-4-27,86.4,77.1,68.4,77.3,71.6,68.1,99,84,59,29.92,29.72,14,6,17,0.00
2014-4-28,88.5,78.4,69.1,75.8,71.6,65.7,99,81,49,29.84,29.67,14,6,17,0.00
2014-4-29,88.3,78.6,71.8,77.0,74.0,69.7,99,86,57,29.86,29.66,16,7,21,0.01
2014-4-30,90.0,77.8,69.8,77.5,72.8,24.0,99,86,15,29.90,29.77,13,5,22,0.06
2014-5-1,89.2,78.0,67.3,76.5,71.4,67.0,99,83,52,30.04,29.81,15,7,19,0.43
2014-5-2,85.5,74.6,68.7,75.6,71.4,68.5,99,91,64,30.03,29.89,15,5,21,0.26
2014-5-3,76.5,70.6,63.7,74.4,69.7,62.8,99,97,89,30.05,29.87,7,3,9,1.57
2014-5-4,86.4,71.5,58.8,64.7,58.0,47.7,99,69,30,30.18,29.99,11,4,17,0.04
2014-5-5,88.5,74.2,59.5,70.8,60.6,54.3,99,68,32,30.18,29.93,8,2,11,0.00
2014-5-6,88.3,74.6,59.9,69.7,63.7,56.0,99,73,37,30.13,29.96,10,4,13,0.00
2014-5-7,85.5,78.4,69.8,79.3,70.4,66.7,99,77,57,30.03,29.74,17,6,17,0.00
2014-5-8,84.6,78.7,71.2,74.7,71.0,65.7,96,78,57,30.00,29.88,14,7,17,0.00
2014-5-9,84.6,78.5,72.3,75.8,71.8,68.3,97,81,65,30.00,29.77,14,7,19,0.00
2014-5-10,84.9,79.0,74.1,73.3,71.3,66.3,92,78,56,29.95,29.78,15,8,19,0.00
2014-5-11,86.0,78.3,72.1,74.2,71.2,68.0,96,80,58,29.95,29.82,13,6,17,0.00
2014-5-12,84.6,78.1,72.0,73.4,71.2,67.4,94,80,59,29.94,29.83,13,7,17,0.00
2014-5-13,84.0,78.4,74.3,75.7,73.0,70.7,99,84,67,29.89,29.75,17,9,22,0.02
2014-5-14,84.9,78.9,73.2,76.7,74.8,70.2,99,88,66,29.87,29.70,18,9,24,0.05
2014-5-15,86.9,76.1,71.1,77.7,73.7,70.5,99,93,67,29.82,29.61,22,6,27,0.47
2014-5-16,82.2,72.1,63.9,71.3,60.9,46.8,99,72,31,29.93,29.73,11,5,17,0.02
2014-5-17,81.3,71.3,59.4,63.0,58.8,53.6,99,68,42,30.03,29.87,12,5,57,0.00
2014-5-18,82.8,74.6,62.2,66.4,62.4,59.3,96,67,49,30.00,29.84,13,6,18,0.00
2014-5-19,83.8,75.2,63.7,69.7,65.7,62.1,98,74,55,29.97,29.86,11,4,15,0.00
2014-5-20,84.4,75.3,64.6,75.9,65.7,62.0,99,75,50,29.99,29.85,10,4,16,0.00
2014-5-21,84.6,74.7,63.3,70.9,64.0,61.0,99,72,50,30.00,29.86,10,4,15,0.00
2014-5-22,93.2,77.3,63.1,68.5,65.4,61.5,99,70,42,29.99,29.68,10,4,13,0.00
2014-5-23,96.8,81.0,70.7,74.1,68.5,64.2,90,68,37,29.87,29.64,10,5,15,0.00
2014-5-24,95.0,82.2,71.1,75.7,72.7,68.2,98,75,46,29.88,29.73,9,4,12,0.00
2014-5-25,92.1,81.7,71.8,77.5,74.1,67.9,99,79,48,29.88,29.75,11,5,17,0.00
2014-5-26,85.5,79.8,75.0,76.8,74.8,73.1,97,85,71,29.96,29.82,14,7,18,0.00
2014-5-27,86.9,78.6,70.3,78.9,71.7,69.7,99,80,59,29.95,29.79,12,5,16,0.00
2014-5-28,87.3,78.2,68.7,77.8,72.0,67.9,99,82,58,29.88,29.70,12,5,17,0.00
2014-5-29,86.7,78.4,70.5,81.3,73.1,69.2,99,85,63,29.84,29.68,14,5,17,0.20
2014-5-30,86.7,77.4,69.1,79.3,73.0,68.8,99,87,69,29.84,29.70,10,3,13,0.00
2014-5-31,87.1,78.0,70.9,79.0,74.2,70.0,99,88,67,29.81,29.65,16,4,19,0.66
2014-6-1,85.3,77.0,70.2,76.8,73.4,69.6,99,89,67,29.97,29.73,15,6,20,0.54
2014-6-2,81.9,77.6,74.8,74.0,68.7,63.9,94,75,63,29.97,29.86,15,9,21,0.00
2014-6-3,84.2,76.3,68.0,69.4,65.5,63.3,99,70,52,29.99,29.82,10,5,16,0.00
2014-6-4,84.2,75.6,66.4,74.5,65.8,61.8,99,74,50,29.92,29.75,10,4,14,0.00
2014-6-5,90.9,78.9,67.5,74.6,68.3,62.2,99,73,43,29.87,29.69,10,4,14,0.00
2014-6-6,91.8,80.6,70.5,75.4,71.7,67.5,98,76,49,29.85,29.63,10,5,14,0.00
2014-6-7,95.7,80.4,71.8,77.1,72.7,68.7,99,80,44,29.87,29.67,11,4,14,0.18
2014-6-8,94.3,80.0,70.5,75.2,72.5,69.7,99,80,50,29.92,29.74,11,6,13,0.00
2014-6-9,140.0,80.8,70.5,99.9,72.6,67.6,99,79,50,30.06,29.71,9,4,12,0.00
2014-6-10,94.1,80.1,72.3,77.5,73.5,63.4,99,82,46,30.13,29.85,18,4,27,0.01
2014-6-11,87.1,74.2,69.8,76.2,72.0,69.2,99,93,65,29.98,29.83,14,4,30,1.13
2014-6-12,91.4,74.5,66.6,74.4,70.2,66.1,99,88,49,29.99,29.81,18,6,24,0.48
2014-6-13,88.2,76.6,69.6,75.7,71.0,68.3,99,84,55,30.00,29.81,15,8,19,0.02
2014-6-14,89.1,74.2,69.1,74.2,71.0,68.2,99,91,55,30.05,29.85,16,5,20,0.31
2014-6-15,88.5,77.3,68.7,78.8,73.6,68.5,99,89,68,30.07,29.97,11,4,15,0.63
2014-6-16,89.8,78.4,69.1,80.3,72.4,68.6,99,83,59,30.10,29.89,10,4,13,0.00
2014-6-20,75.9,73.8,72.5,74.2,72.8,71.6,99,97,92,29.99,29.88,9,6,13,1.05
2014-6-21,96.4,78.4,70.3,77.3,72.7,69.6,99,85,46,29.98,29.71,14,7,19,1.46
2014-6-22,92.7,80.7,71.6,78.0,73.6,69.2,99,81,48,29.94,29.77,12,5,16,0.01
2014-6-23,92.8,78.7,72.3,77.6,74.6,71.5,99,88,53,30.02,29.83,12,4,17,0.43
2014-6-24,92.3,80.9,72.9,77.7,74.1,71.5,99,82,55,30.10,29.90,12,4,15,0.00
2014-6-25,92.8,83.7,73.9,80.5,75.2,70.2,99,78,51,30.08,29.87,10,4,14,0.00
2014-6-26,93.6,82.3,70.2,78.3,74.1,69.0,98,78,48,30.04,29.85,16,5,21,0.56
2014-6-27,93.2,81.0,72.1,78.7,73.8,70.6,99,81,55,30.02,29.73,11,4,15,0.00
2014-6-28,96.8,81.9,71.4,77.7,73.8,69.5,99,79,48,30.00,29.85,9,3,11,0.00
2014-6-29,95.2,80.2,72.1,80.3,76.1,70.5,99,89,50,29.97,29.81,17,3,24,0.99
2014-6-30,91.4,81.3,73.9,79.6,76.3,73.7,99,86,62,29.90,29.65,12,6,17,0.04
2014-7-1,88.2,79.9,74.5,80.3,76.7,73.9,99,90,69,29.75,29.59,11,6,23,0.13
2014-7-2,86.7,78.9,73.2,77.6,74.7,24.1,99,88,66,29.77,29.60,13,6,16,0.07
2014-7-3,94.5,81.1,74.1,79.8,75.5,70.2,99,85,55,29.90,29.75,16,7,21,0.19
2014-7-4,94.3,78.7,72.3,78.2,74.2,69.4,99,88,46,29.98,29.84,18,6,30,0.56
2014-7-5,91.4,77.5,70.2,79.6,74.2,69.4,99,91,55,30.00,29.87,22,4,29,1.18
2014-7-6,91.6,77.0,72.0,80.1,73.9,70.8,99,91,57,29.98,29.87,14,4,17,0.05
2014-7-7,90.1,79.3,71.4,80.1,74.3,69.9,99,85,55,29.99,29.88,16,4,20,0.05
2014-7-8,93.6,81.9,73.8,83.5,76.0,69.1,99,84,53,29.99,29.88,23,3,34,0.44
2014-7-9,89.6,76.7,72.9,76.8,73.5,70.9,99,91,60,29.96,29.88,10,4,13,1.03
2014-7-10,90.7,79.8,73.0,78.2,74.7,71.0,99,86,54,29.99,29.83,12,4,15,0.00
2014-7-11,90.3,80.9,72.1,80.3,75.5,71.3,99,84,61,30.00,29.86,17,4,23,0.64
2014-7-12,90.0,82.0,74.1,82.2,76.6,73.9,99,85,63,30.00,29.85,13,4,14,0.00
2014-7-13,90.0,82.0,74.1,81.3,77.0,73.9,99,85,64,29.96,29.85,10,3,14,0.01
2014-7-14,94.3,80.6,71.2,79.1,75.4,70.5,99,86,50,29.95,29.80,16,4,21,1.18
2014-7-15,90.9,77.3,72.7,79.6,74.4,71.8,99,92,56,29.91,29.77,14,4,19,0.37
2014-7-16,89.8,76.7,72.5,78.4,74.8,71.6,99,94,62,29.87,29.70,22,6,32,0.94
2014-7-17,90.3,79.9,73.8,78.6,75.7,73.3,99,88,61,29.88,29.70,13,5,16,0.02
2014-7-18,92.7,82.4,74.5,79.4,76.8,73.1,99,85,58,29.93,29.77,8,3,13,0.01
2014-7-19,93.0,84.0,74.7,84.9,76.0,70.1,99,78,50,29.93,29.80,8,3,11,0.00
2014-7-20,93.9,83.1,76.5,83.8,76.7,72.7,99,82,52,29.91,29.77,10,3,12,0.00
2014-7-21,94.3,80.8,75.0,83.0,76.3,72.0,99,87,52,29.92,29.81,16,3,23,0.24
2014-7-22,90.0,78.6,72.9,82.5,75.4,72.0,99,91,61,29.95,29.83,12,3,21,0.73
2014-7-23,91.4,81.0,72.7,80.3,76.4,71.8,99,87,61,29.95,29.77,10,4,15,0.01
2014-7-24,95.2,82.1,75.6,79.4,76.5,73.5,99,85,50,29.90,29.78,14,5,26,0.41
2014-7-25,93.2,81.2,73.6,80.0,76.1,23.9,99,87,52,30.01,29.83,11,4,17,0.39
2014-7-26,96.1,80.6,70.7,80.4,75.0,70.1,99,85,49,30.03,29.87,13,4,17,0.94
2014-7-27,96.8,83.2,73.9,80.3,75.7,24.0,99,81,47,30.02,29.88,14,5,17,0.01
2014-7-28,93.6,83.6,76.6,80.8,77.0,73.1,99,82,54,30.01,29.80,16,6,22,0.05
2014-7-29,92.3,80.6,75.4,80.0,76.8,72.9,99,89,60,29.90,29.75,17,7,24,0.24
2014-7-30,95.5,83.2,75.7,79.4,76.3,69.7,99,81,44,29.90,29.77,10,5,118,0.00
2014-7-31,93.0,83.0,76.5,81.8,77.2,72.9,99,84,54,29.92,29.80,12,5,15,0.20
2014-8-1,93.0,82.4,76.1,78.9,76.6,71.1,99,84,51,29.92,29.74,14,5,15,0.00
2014-8-2,91.8,84.6,76.6,83.8,77.4,24.1,99,81,14,29.91,29.80,14,4,15,0.00
2014-8-3,95.7,83.0,77.7,82.6,78.1,75.3,99,86,53,29.88,29.75,8,3,11,0.00
2014-8-4,91.2,81.0,76.6,78.9,77.3,74.8,99,89,64,29.87,29.74,7,5,10,0.09
2014-8-5,89.6,82.8,76.6,78.9,77.1,71.1,99,83,64,29.98,29.75,11,5,18,0.06
2014-8-6,95.2,82.3,75.4,80.0,77.3,73.9,99,87,53,30.00,29.88,10,3,14,0.05
2014-8-7,94.8,79.8,72.9,82.0,76.3,71.8,99,90,56,29.96,29.85,19,2,25,0.79
2014-8-8,96.3,82.3,72.1,78.6,75.3,71.3,99,82,51,30.00,29.85,10,3,13,0.45
2014-8-9,95.4,81.3,72.1,79.9,75.6,71.3,99,84,52,30.00,29.86,15,4,17,0.00
2014-8-10,93.0,81.1,75.6,78.9,75.8,72.7,99,85,55,29.98,29.86,14,5,18,0.00
2014-8-11,90.1,79.6,0.0,78.9,75.2,71.4,99,86,62,29.96,29.81,13,5,18,0.05
2014-8-12,94.1,82.5,73.9,77.2,74.3,70.2,99,78,47,29.94,29.75,16,7,22,0.00
2014-8-13,94.3,82.1,75.9,79.6,76.7,70.9,99,85,50,29.91,29.79,18,6,21,0.08
2014-8-14,90.7,80.0,76.3,79.8,76.9,74.7,99,91,63,29.94,29.83,11,4,17,0.08
2014-8-15,93.0,77.3,71.4,81.4,75.2,70.7,99,94,59,29.93,29.82,11,4,18,0.99
2014-8-16,91.6,77.1,72.9,77.5,74.2,72.0,99,92,57,30.00,29.90,20,4,27,0.74
2014-8-17,93.6,81.6,73.8,79.3,76.4,73.5,99,86,59,30.06,29.88,11,4,15,0.00
2014-8-18,94.1,82.9,76.8,80.0,77.0,73.5,99,83,54,29.99,29.80,13,4,18,0.01
2014-8-19,99.0,85.3,75.9,80.5,76.5,70.0,98,77,42,29.93,29.78,10,4,13,0.00
2014-8-20,97.7,85.6,77.4,81.1,77.8,73.0,99,79,48,29.99,29.87,10,4,14,0.00
2014-8-21,95.7,84.4,77.5,83.3,77.6,73.9,99,81,53,30.03,29.86,9,3,12,0.13
2014-8-22,97.2,84.4,76.5,80.7,76.8,72.2,99,80,47,30.02,29.84,10,3,14,0.00
2014-8-23,96.6,84.9,74.8,81.7,76.1,71.2,99,77,48,29.90,29.69,9,3,12,0.00
2014-8-24,97.0,84.3,76.5,81.6,77.8,74.7,99,83,50,29.79,29.62,10,4,17,0.09
2014-8-25,90.0,83.0,78.3,80.5,77.2,73.6,99,83,64,29.74,29.62,14,7,20,0.13
2014-8-26,90.9,83.9,78.3,76.1,73.3,67.2,89,71,55,29.84,29.70,12,7,18,0.00
2014-8-27,92.3,82.1,73.8,78.1,73.6,69.0,99,78,49,29.85,29.79,9,3,12,0.00
2014-8-28,86.4,82.6,78.1,78.4,77.6,75.0,91,85,75,29.92,29.83,15,6,15,0.25
2014-8-29,92.3,81.3,71.8,81.9,75.9,70.9,99,85,55,30.02,29.81,25,5,25,0.46
2014-8-30,91.4,81.2,73.2,80.4,76.2,72.4,99,86,65,30.06,29.90,14,3,14,0.01
2014-8-31,90.7,83.2,74.5,81.2,76.4,24.0,99,81,57,30.04,29.92,17,4,17,0.00
2014-9-1,93.2,83.4,74.8,83.3,76.4,22.8,99,81,58,30.00,29.90,15,4,15,0.00
2014-9-2,91.6,84.1,75.0,82.9,75.3,72.2,99,76,55,29.99,29.82,16,4,16,0.00
2014-9-3,90.5,81.7,73.9,80.4,75.2,73.0,99,82,61,29.98,29.81,17,4,17,0.00
2014-9-4,90.9,80.3,74.1,78.8,74.9,69.3,99,84,54,30.01,29.87,14,3,14,0.02
2014-9-5,91.8,78.5,0.0,78.8,74.7,70.7,99,88,57,30.05,29.91,14,4,20,12.10
2014-9-6,90.0,76.4,72.0,85.7,73.4,67.8,99,91,65,30.03,29.91,13,2,21,0.21
2014-9-7,90.0,76.4,72.7,79.3,74.5,71.8,99,94,66,30.00,29.87,14,2,21,1.22
2014-9-8,89.8,78.3,71.6,83.7,74.9,70.7,99,90,63,30.00,29.87,11,1,14,0.40
2014-9-9,92.1,81.0,73.0,81.3,74.9,70.9,99,83,57,29.99,29.78,14,3,14,0.02
2014-9-10,89.4,82.0,73.6,82.8,75.5,73.1,99,82,61,29.91,29.81,14,4,14,0.00
2014-9-11,93.2,81.2,74.3,79.5,76.0,70.4,99,86,54,29.89,29.77,15,3,15,0.12
2014-9-12,89.1,82.4,77.5,79.5,76.8,74.5,99,84,66,29.87,29.75,17,6,17,0.04
2014-9-13,90.1,81.4,74.7,76.4,74.4,70.4,99,81,55,29.95,29.81,16,5,16,0.00
2014-9-14,88.5,79.6,72.0,78.0,73.7,68.8,99,84,54,30.04,29.91,18,4,18,0.37
2014-9-15,93.7,81.6,71.6,78.8,73.2,68.1,99,78,46,30.02,29.90,18,3,18,0.01
2014-9-16,95.0,80.7,73.6,77.8,74.3,69.4,99,83,46,30.00,29.80,12,4,12,0.00
2014-9-17,83.5,77.1,73.4,75.9,74.3,73.0,99,91,76,29.91,29.70,15,6,15,0.00
2014-9-18,91.8,80.1,71.6,79.0,73.8,69.9,99,83,52,29.86,29.74,13,4,13,0.00
2014-9-19,86.7,77.2,69.1,79.6,74.2,68.8,99,91,69,29.91,29.78,17,4,17,0.94
2014-9-20,74.5,71.7,70.2,74.1,71.1,69.6,99,98,97,29.91,29.82,9,2,9,0.48
2014-9-21,80.2,76.8,73.6,77.6,75.5,73.3,99,96,87,30.01,29.87,5,2,6,1.34
2014-9-22,90.3,75.9,70.2,78.7,73.1,69.6,99,92,64,30.01,29.86,19,3,19,0.90
2014-9-23,87.8,74.8,70.5,78.9,73.0,70.0,99,94,69,30.02,29.85,20,2,20,1.50
2014-9-24,85.1,76.1,71.4,82.1,74.2,70.7,99,94,74,30.05,29.92,19,2,19,1.07
2014-9-25,89.6,78.4,72.1,80.3,75.1,71.3,99,90,64,30.06,29.88,12,2,12,0.22
2014-9-26,91.6,77.7,71.8,78.4,74.6,22.6,99,91,13,29.99,29.81,16,2,16,0.11
2014-9-27,88.5,79.2,71.8,82.1,75.3,70.9,99,88,66,29.96,29.84,17,3,17,0.56
2014-9-28,89.2,80.3,73.4,80.1,75.7,22.7,99,87,64,29.96,29.82,14,4,14,0.13
2014-9-29,93.6,78.1,72.9,84.8,75.7,72.0,99,93,61,29.91,29.72,17,3,17,1.29
2014-9-30,90.1,77.8,72.7,78.7,75.0,71.8,99,92,61,29.81,29.69,25,4,25,0.28
2014-10-1,90.3,79.7,73.0,79.7,76.1,72.2,99,89,63,29.90,29.76,8,2,12,0.07
2014-10-2,91.9,81.6,74.3,81.4,76.0,74.1,99,84,59,29.98,29.86,11,3,12,0.01
2014-10-3,91.8,80.6,73.4,83.8,75.9,73.2,99,87,56,29.98,29.83,11,3,11,0.57
2014-10-4,86.4,77.8,68.5,78.5,74.0,63.9,99,89,67,29.91,29.65,13,5,13,0.00
2014-10-5,84.6,71.0,61.2,63.9,59.6,56.3,98,70,43,30.00,29.85,12,3,12,0.00
2014-10-6,86.5,73.2,60.6,70.4,64.2,60.2,99,76,50,30.06,29.91,11,3,12,0.00
2014-10-7,88.9,75.7,67.5,76.1,70.0,14.9,99,84,11,30.06,29.94,11,2,11,0.00
2014-10-8,90.5,79.3,72.3,78.9,73.2,69.1,99,83,52,30.08,29.95,12,2,12,0.00
2014-10-9,89.6,81.7,68.4,78.6,72.1,68.1,99,74,54,30.08,29.95,14,5,14,0.00
2014-10-10,88.7,80.4,70.2,78.7,72.7,69.6,99,79,59,30.04,29.90,16,3,16,0.00
2014-10-11,91.6,81.0,72.3,81.8,72.5,66.9,99,77,50,30.00,29.88,14,3,14,0.00
2014-10-12,92.1,80.3,69.3,80.1,72.0,69.0,99,77,57,30.04,26.88,14,4,14,0.00
2014-10-13,86.5,81.1,74.8,73.9,71.7,68.5,87,74,57,29.97,29.87,18,7,18,0.00
2014-10-14,89.1,79.3,72.5,79.3,74.8,71.6,99,87,62,29.93,29.75,26,6,26,1.29
2014-10-15,86.7,77.3,70.0,78.0,73.3,64.2,99,88,68,29.99,29.78,14,4,14,0.09
2014-10-16,85.6,72.9,61.7,70.3,63.0,60.6,99,74,45,29.97,29.79,17,4,17,0.00
2014-10-17,89.4,72.4,60.1,66.8,62.3,59.5,99,74,42,30.01,29.88,9,2,9,0.00
2014-10-18,88.3,73.1,61.5,68.5,63.3,59.7,99,75,43,30.05,29.85,12,2,12,0.00
2014-10-19,87.3,73.3,61.3,70.2,65.5,60.8,99,79,47,30.08,29.92,12,2,12,0.00
2014-10-20,89.1,75.9,64.2,75.9,67.6,63.4,99,79,46,30.03,29.89,10,2,10,0.00
2014-10-21,87.6,75.2,68.9,74.8,71.3,68.6,99,88,58,29.97,29.81,12,3,12,0.00
2014-10-22,88.9,75.0,67.3,74.8,68.0,14.9,99,81,49,29.96,29.83,11,4,11,0.00
2014-10-23,84.2,74.3,62.1,64.7,61.3,55.7,98,66,44,29.97,29.83,13,4,13,0.00
2014-10-24,83.5,71.9,60.4,69.4,61.1,57.1,99,72,44,29.97,29.82,16,3,16,0.00
2014-10-25,86.2,69.8,62.1,65.3,62.0,59.0,98,78,47,30.00,29.85,12,4,12,0.00
2014-10-26,86.9,70.4,57.9,64.4,60.5,55.4,99,75,41,30.07,29.92,10,2,10,0.00
2014-10-27,85.3,71.4,57.7,71.3,63.4,57.5,99,79,43,30.15,29.99,16,2,16,0.00
2014-10-28,88.0,73.5,61.5,74.9,66.1,61.0,99,80,50,30.20,30.05,13,2,13,0.00
2014-10-29,91.2,76.9,63.0,72.7,65.6,61.8,99,71,38,30.15,29.69,11,2,11,0.00
2014-10-30,90.1,74.2,62.6,71.0,65.7,61.8,99,78,44,29.84,29.64,10,2,10,0.00
2014-10-31,83.8,71.9,60.4,73.5,62.6,48.9,99,76,33,29.72,29.55,16,4,16,0.18
2014-11-1,66.7,58.7,47.7,55.2,41.8,20.3,96,60,18,30.14,29.72,30,8,30,0.00
2014-11-2,81.7,55.4,43.5,48.6,43.5,38.6,93,68,31,30.33,29.51,12,4,12,0.00
2014-11-3,78.8,64.2,48.0,58.0,52.6,44.8,97,69,43,30.03,29.74,15,4,15,0.00
2014-11-4,81.5,72.8,64.6,66.1,60.0,55.1,81,65,46,29.78,29.57,23,5,23,0.00
2014-11-5,83.5,72.1,60.6,70.6,63.9,60.2,99,77,51,29.69,29.49,14,3,14,0.00
2014-11-6,87.1,71.8,61.5,70.9,64.9,61.0,99,82,47,29.59,29.34,8,2,8,0.14
2014-11-7,81.0,68.3,56.7,69.8,61.0,55.6,99,80,48,29.47,29.29,12,3,12,0.00
2014-11-8,81.0,67.7,55.6,70.0,63.7,55.3,99,88,60,29.49,29.19,13,2,13,0.04
2014-11-9,65.1,62.0,58.6,64.7,61.4,58.4,99,98,97,29.47,29.24,13,3,13,0.53
2014-11-10,77.7,65.8,61.0,69.0,63.1,55.3,99,91,71,29.44,29.29,17,5,17,0.01
2014-11-11,83.3,69.4,58.8,67.6,61.5,54.8,99,77,56,29.44,29.22,17,5,17,0.00
2014-11-12,86.9,69.3,57.0,62.9,59.2,54.0,99,74,40,29.50,29.35,11,3,11,0.00
2014-11-13,85.5,69.4,55.2,65.9,61.3,54.4,99,79,47,29.57,29.38,8,2,8,0.00
2014-11-14,68.7,63.4,60.3,68.1,62.0,57.3,99,95,85,29.58,29.43,9,2,9,0.01
2014-11-15,80.4,66.4,52.9,63.4,58.8,52.3,99,79,52,29.76,29.51,10,2,10,0.00
2014-11-16,81.9,69.8,55.8,70.4,65.1,55.3,99,87,62,29.74,29.46,14,3,14,0.00
2014-11-17,86.4,73.4,66.6,74.8,69.3,66.3,99,88,58,29.48,29.21,25,8,25,0.67
2014-11-18,68.5,54.9,47.3,68.3,52.2,37.4,99,91,66,29.93,29.39,16,5,16,0.09
2014-11-19,63.3,52.2,43.3,55.6,47.2,37.9,99,84,67,30.06,29.86,13,5,13,0.00
2014-11-20,72.7,59.2,48.7,57.4,52.0,48.5,99,80,49,29.99,29.71,14,4,14,0.02
2014-11-21,79.2,66.4,53.1,62.8,57.3,51.9,99,75,46,29.92,29.62,16,5,16,0.00
2014-11-22,73.2,71.6,69.4,69.4,66.3,57.2,99,84,63,29.73,29.48,21,10,21,0.11
2014-11-23,85.3,76.4,70.3,75.3,72.7,69.1,98,89,64,29.49,29.28,22,9,22,0.08
2014-11-24,88.2,77.6,72.1,76.2,73.3,71.3,99,87,62,29.48,29.29,17,6,17,0.00
2014-11-25,82.6,76.2,71.2,76.9,73.7,14.4,99,92,11,29.48,29.27,14,5,14,0.40
2014-11-26,75.4,60.6,49.1,74.3,58.8,48.8,99,94,67,29.79,29.33,24,5,24,0.74
2014-11-27,74.8,58.7,45.9,53.3,47.2,39.2,99,69,42,30.00,29.65,17,4,17,0.01
2014-11-28,69.8,55.4,46.0,48.9,45.0,38.3,90,70,44,30.03,29.67,14,5,14,0.00
2014-11-29,77.4,61.2,49.5,57.0,53.1,47.8,99,78,45,29.99,29.65,11,3,11,0.00
2014-11-30,79.7,66.3,52.9,67.7,58.6,-1.8,99,78,49,29.94,29.60,17,3,17,0.00
2014-12-1,80.1,70.9,58.8,74.2,64.1,58.5,99,80,59,29.80,29.55,18,5,18,0.00
2014-12-2,79.7,70.1,63.5,70.9,66.8,62.7,99,90,63,30.19,29.57,20,4,20,0.37
2014-12-3,84.0,71.1,63.3,71.8,65.2,61.0,99,84,48,29.95,29.83,17,3,17,0.00
2014-12-4,82.4,71.0,63.7,70.9,66.5,62.8,99,87,61,29.95,29.78,16,3,16,0.00
2014-12-5,81.0,72.1,67.1,73.7,68.8,66.2,99,90,71,29.96,29.83,17,4,17,0.19
2014-12-6,85.5,70.9,64.2,72.8,67.4,63.2,99,90,56,29.95,29.77,10,1,10,0.01
2014-12-7,74.3,65.0,58.1,66.0,62.1,57.6,99,91,68,29.86,29.74,12,4,12,0.01
2014-12-8,69.3,64.6,59.4,68.1,63.9,59.1,99,98,94,29.86,29.69,11,2,11,0.66
2014-12-9,70.3,59.8,52.7,59.1,53.8,50.8,99,82,52,29.93,29.78,14,6,14,0.09
2014-12-10,48.6,47.3,46.0,47.5,46.1,44.7,97,95,92,29.98,29.85,4,1,4,0.00
2014-12-11,70.5,52.3,0.0,48.9,43.0,-41.2,99,78,1,30.21,29.81,36,4,36,0.00
2014-12-12,65.5,52.3,46.0,50.6,47.2,44.2,99,84,54,30.08,29.86,7,2,8,0.00
2014-12-13,76.8,56.3,44.1,52.5,47.0,43.5,99,75,39,30.06,29.57,11,2,11,0.00
2014-12-14,78.4,56.0,42.4,50.7,42.9,34.3,99,71,24,29.96,29.57,11,2,11,0.01
2014-12-15,79.2,57.2,43.0,52.9,45.7,37.9,99,73,23,29.90,29.66,9,2,9,0.00
2014-12-16,77.9,64.1,44.1,56.6,45.8,37.8,99,59,25,29.97,29.68,14,4,14,0.00
2014-12-17,77.7,63.3,54.1,61.1,56.9,50.9,99,82,50,29.91,29.57,17,4,17,0.00
2014-12-18,79.7,58.7,46.4,54.0,50.6,45.4,99,79,34,29.87,29.61,12,2,12,0.00
2014-12-19,78.1,61.5,48.9,59.9,51.5,46.8,99,75,36,29.85,29.52,8,1,8,0.00
2014-12-20,81.0,71.0,55.8,71.4,62.5,55.5,99,76,53,29.80,29.47,11,3,11,0.00
2014-12-21,84.9,70.2,60.6,67.9,64.1,60.0,99,82,49,29.67,29.47,13,3,13,0.00
2014-12-22,83.3,72.1,63.9,68.5,65.7,63.0,99,82,53,29.62,29.38,14,4,17,0.11
2014-12-23,80.8,72.9,65.3,72.8,69.0,65.0,99,88,67,29.57,29.32,16,6,16,0.00
2014-12-24,84.2,75.7,61.2,75.0,70.6,43.9,95,84,53,30.41,29.34,26,9,26,0.39
2014-12-25,69.3,62.6,54.1,65.8,56.0,47.2,98,81,48,30.31,29.95,13,3,14,0.00
2014-12-26,73.0,66.5,54.1,64.3,61.7,50.8,95,85,69,30.42,30.19,7,2,7,0.00
2014-12-27,81.3,71.0,62.8,72.1,67.5,61.5,99,89,70,30.36,30.09,8,2,8,0.01
2014-12-28,85.6,73.5,65.3,71.8,67.4,63.6,99,83,50,30.24,30.03,12,3,13,0.00
2014-12-29,85.1,73.3,67.6,71.2,68.4,65.9,99,86,56,30.16,29.70,16,4,16,0.00
2014-12-30,80.8,70.4,64.0,70.5,66.4,63.2,99,88,63,29.99,29.82,9,3,11,0.00
2014-12-31,70.9,68.1,66.0,68.8,66.9,65.1,99,96,89,30.05,29.91,11,4,11,0.12
2015-1-1,77.2,69.2,62.8,72.8,67.7,61.9,99,95,77,30.07,29.87,18,3,18,0.18
2015-1-2,79.0,69.3,64.6,71.7,67.8,64.3,99,95,74,30.05,29.87,8,2,8,0.00